Time;durP1;ratioP1;P1;durP2;ratioP2;P2;SDS_P1;SDS_P2;PMS_P1;PMS_P2;Temp;Humidity;BMP_temperature;BMP_pressure;BME280_temperature;BME280_humidity;BME280_pressure;Samples;Min_cycle;Max_cycle;Signal;HPM_P1;HPM_P2
2022/07/03 00:00:20;;;;;;;2.95;1.70;;;17.80;91.10;;;;;;5028154;28;20589;-82
2022/07/03 00:02:48;;;;;;;1.90;1.45;;;17.80;91.10;;;;;;5049303;28;20877;-83
2022/07/03 00:05:15;;;;;;;2.17;1.55;;;17.80;91.10;;;;;;5046361;28;20237;-82
2022/07/03 00:07:41;;;;;;;1.80;1.60;;;17.80;91.20;;;;;;5035403;28;20298;-82
2022/07/03 00:10:09;;;;;;;3.53;1.55;;;17.80;91.20;;;;;;5045634;28;20652;-82
2022/07/03 00:12:36;;;;;;;2.72;1.52;;;17.70;91.20;;;;;;5026514;28;20230;-81
2022/07/03 00:15:03;;;;;;;2.03;1.60;;;17.80;91.20;;;;;;5035085;28;20224;-82
2022/07/03 00:17:29;;;;;;;2.35;1.48;;;17.80;91.40;;;;;;5025232;28;20949;-82
2022/07/03 00:19:57;;;;;;;1.60;1.50;;;17.70;91.30;;;;;;5045442;28;20242;-81
2022/07/03 00:22:26;;;;;;;3.75;1.58;;;17.70;91.30;;;;;;5029938;28;20228;-81
2022/07/03 00:24:54;;;;;;;1.83;1.40;;;17.70;91.50;;;;;;5052906;28;20220;-82
2022/07/03 00:27:24;;;;;;;2.25;1.33;;;17.70;91.50;;;;;;5034248;28;20231;-82
2022/07/03 00:29:53;;;;;;;2.17;1.60;;;17.70;91.40;;;;;;5035854;28;20230;-81
2022/07/03 00:32:23;;;;;;;3.00;1.80;;;17.60;91.70;;;;;;5053224;28;20919;-81
2022/07/03 00:34:52;;;;;;;2.38;1.55;;;17.60;91.50;;;;;;5054173;28;20218;-82
2022/07/03 00:37:20;;;;;;;1.88;1.70;;;17.60;91.50;;;;;;5035297;28;20250;-81
2022/07/03 00:39:49;;;;;;;2.10;1.80;;;17.60;91.60;;;;;;5036581;28;20311;-81
2022/07/03 00:42:16;;;;;;;1.83;1.73;;;17.60;91.50;;;;;;5054159;28;20234;-82
2022/07/03 00:44:46;;;;;;;3.17;1.40;;;17.60;91.70;;;;;;5043100;28;20228;-80
2022/07/03 00:47:13;;;;;;;2.00;1.60;;;17.60;91.70;;;;;;5034438;28;20252;-80
2022/07/03 00:49:41;;;;;;;2.40;1.48;;;17.60;91.70;;;;;;5035817;28;20306;-80
2022/07/03 00:52:10;;;;;;;2.30;1.77;;;17.60;91.70;;;;;;5054381;28;20224;-81
2022/07/03 00:54:43;;;;;;;2.53;1.57;;;17.60;92.10;;;;;;5054480;28;20734;-81
2022/07/03 00:57:17;;;;;;;1.63;1.50;;;17.60;92.20;;;;;;5053561;28;20351;-81
2022/07/03 00:59:44;;;;;;;2.88;1.67;;;17.60;92.40;;;;;;5033213;28;20766;-81
2022/07/03 01:02:25;;;;;;;2.20;1.80;;;17.60;92.20;;;;;;5047664;28;20381;-81
2022/07/03 01:04:56;;;;;;;2.50;1.60;;;17.60;92.20;;;;;;5049638;28;20228;-81
2022/07/03 01:07:36;;;;;;;3.15;1.65;;;17.50;92.00;;;;;;5047569;28;20254;-81
2022/07/03 01:10:11;;;;;;;1.52;1.42;;;17.50;92.30;;;;;;5034932;28;20218;-81
2022/07/03 01:12:52;;;;;;;4.20;1.77;;;17.50;92.20;;;;;;5024118;28;20220;-81
2022/07/03 01:15:25;;;;;;;1.70;1.40;;;17.40;92.30;;;;;;5052818;28;20228;-81
2022/07/03 01:18:03;;;;;;;3.00;1.65;;;17.40;92.20;;;;;;5049933;28;20283;-81
2022/07/03 01:20:33;;;;;;;2.05;1.50;;;17.30;92.30;;;;;;5047915;28;20224;-80
2022/07/03 01:23:01;;;;;;;2.95;1.35;;;17.30;92.20;;;;;;5038626;28;20220;-80
2022/07/03 01:25:41;;;;;;;3.37;1.80;;;17.30;92.20;;;;;;5035626;28;20224;-80
2022/07/03 01:28:13;;;;;;;3.85;1.80;;;17.30;92.40;;;;;;5047081;28;20220;-81
2022/07/03 01:30:43;;;;;;;1.80;1.60;;;17.20;92.40;;;;;;5049889;28;20220;-81
2022/07/03 01:33:12;;;;;;;2.90;1.80;;;17.20;92.30;;;;;;5021099;28;20315;-83
2022/07/03 01:35:41;;;;;;;1.88;1.42;;;17.20;92.40;;;;;;5025937;28;20581;-82
2022/07/03 01:38:09;;;;;;;2.57;1.57;;;17.20;92.40;;;;;;5050494;28;20224;-81
2022/07/03 01:40:38;;;;;;;1.48;1.38;;;17.20;92.60;;;;;;5046260;28;20323;-83
2022/07/03 01:43:08;;;;;;;1.83;1.30;;;17.20;92.60;;;;;;5043014;28;20220;-82
2022/07/03 01:45:39;;;;;;;1.97;1.77;;;17.20;92.80;;;;;;5056630;28;20219;-82
2022/07/03 01:48:07;;;;;;;4.30;1.70;;;17.20;92.80;;;;;;5048715;28;20224;-82
2022/07/03 01:50:35;;;;;;;3.83;1.67;;;17.20;92.80;;;;;;5034375;28;20234;-83
2022/07/03 01:53:03;;;;;;;1.77;1.50;;;17.20;92.90;;;;;;5051698;28;20230;-82
2022/07/03 01:55:34;;;;;;;1.80;1.63;;;17.20;92.80;;;;;;5049279;28;20321;-81
2022/07/03 01:58:01;;;;;;;2.07;1.50;;;17.20;92.90;;;;;;5050338;28;20247;-81
2022/07/03 02:00:30;;;;;;;2.50;1.55;;;17.20;92.90;;;;;;5029597;28;20246;-82
2022/07/03 02:03:01;;;;;;;1.60;1.50;;;17.20;93.00;;;;;;5042689;28;20695;-83
2022/07/03 02:05:38;;;;;;;4.33;1.60;;;17.20;93.40;;;;;;5047863;28;20231;-82
2022/07/03 02:08:12;;;;;;;1.73;1.63;;;17.20;93.00;;;;;;5044817;28;20224;-82
2022/07/03 02:10:45;;;;;;;3.10;1.83;;;17.20;93.00;;;;;;5028746;28;20231;-81
2022/07/03 02:13:17;;;;;;;2.87;1.60;;;17.20;93.00;;;;;;5040799;28;20223;-80
2022/07/03 02:15:51;;;;;;;2.50;1.48;;;17.10;93.10;;;;;;5046369;28;20330;-80
2022/07/03 02:18:28;;;;;;;1.80;1.40;;;17.10;93.30;;;;;;5044546;28;20230;-84
2022/07/03 02:21:08;;;;;;;2.17;1.50;;;17.10;93.50;;;;;;5042450;28;20359;-82
2022/07/03 02:23:44;;;;;;;3.03;1.80;;;17.10;93.30;;;;;;5046882;28;20712;-84
2022/07/03 02:26:16;;;;;;;1.83;1.70;;;17.10;93.20;;;;;;5020224;28;20233;-83
2022/07/03 02:28:54;;;;;;;5.13;1.90;;;17.10;93.40;;;;;;5046307;28;20753;-83
2022/07/03 02:31:27;;;;;;;2.43;1.53;;;17.10;93.40;;;;;;5021798;28;20224;-80
2022/07/03 02:33:58;;;;;;;3.83;1.70;;;17.10;93.40;;;;;;5029572;28;20217;-84
2022/07/03 02:36:27;;;;;;;3.43;1.70;;;17.00;93.60;;;;;;5050928;28;20304;-84
2022/07/03 02:38:58;;;;;;;3.27;1.73;;;17.00;93.60;;;;;;5052030;28;20304;-84
2022/07/03 02:41:33;;;;;;;3.27;1.60;;;17.00;93.60;;;;;;5060904;28;20227;-84
2022/07/03 02:44:03;;;;;;;2.57;1.80;;;17.00;93.60;;;;;;5048654;28;20223;-82
2022/07/03 02:46:52;;;;;;;1.93;1.73;;;17.00;93.40;;;;;;5029811;28;20229;-81
2022/07/03 02:49:34;;;;;;;3.63;1.80;;;17.00;93.60;;;;;;5041886;28;20225;-86
2022/07/03 02:52:11;;;;;;;1.77;1.67;;;17.00;93.50;;;;;;5053279;28;20215;-86
2022/07/03 02:54:46;;;;;;;2.47;1.70;;;17.10;93.50;;;;;;5030886;28;20249;-83
2022/07/03 02:57:15;;;;;;;4.03;1.97;;;17.10;93.50;;;;;;5036100;28;20234;-85
2022/07/03 02:59:53;;;;;;;3.50;1.60;;;17.10;93.40;;;;;;5046091;28;20704;-83
2022/07/03 03:02:36;;;;;;;2.37;1.50;;;17.00;93.60;;;;;;5018747;28;20223;-83
2022/07/03 03:05:07;;;;;;;2.87;1.83;;;17.00;93.70;;;;;;5037183;28;20231;-84
2022/07/03 03:07:40;;;;;;;1.80;1.50;;;17.00;93.60;;;;;;5023229;28;20577;-83
2022/07/03 03:10:09;;;;;;;2.33;1.67;;;17.00;93.60;;;;;;5042563;28;20299;-83
2022/07/03 03:12:38;;;;;;;2.70;1.53;;;17.00;93.70;;;;;;5030828;28;20244;-83
2022/07/03 03:15:06;;;;;;;1.77;1.40;;;17.10;93.70;;;;;;5045455;28;20216;-84
2022/07/03 03:17:42;;;;;;;1.83;1.73;;;17.00;93.50;;;;;;5017542;28;20250;-82
2022/07/03 03:20:14;;;;;;;2.73;1.50;;;16.90;93.60;;;;;;5041066;28;20226;-82
2022/07/03 03:22:56;;;;;;;1.67;1.57;;;17.00;93.60;;;;;;5032182;28;20227;-82
2022/07/03 03:25:23;;;;;;;3.13;1.70;;;16.90;93.70;;;;;;5043287;28;20251;-82
2022/07/03 03:27:49;;;;;;;1.70;1.50;;;16.90;93.60;;;;;;5040379;28;20212;-83
2022/07/03 03:30:16;;;;;;;3.23;1.70;;;16.80;93.90;;;;;;5037713;28;20658;-82
2022/07/03 03:32:45;;;;;;;3.30;2.03;;;16.80;93.90;;;;;;5037012;28;20235;-83
2022/07/03 03:35:12;;;;;;;2.00;1.90;;;16.70;94.10;;;;;;5050561;28;20224;-83
2022/07/03 03:37:39;;;;;;;2.27;1.80;;;16.70;94.10;;;;;;5050846;28;20735;-84
2022/07/03 03:40:07;;;;;;;3.33;1.50;;;16.60;94.10;;;;;;5038556;28;20232;-84
2022/07/03 03:42:34;;;;;;;1.90;1.70;;;16.60;94.20;;;;;;5028453;28;20221;-84
2022/07/03 03:45:00;;;;;;;2.23;1.67;;;16.60;94.20;;;;;;5046429;28;20245;-84
2022/07/03 03:47:30;;;;;;;2.13;1.70;;;16.60;94.20;;;;;;5023118;28;20981;-85
2022/07/03 03:49:59;;;;;;;1.70;1.60;;;16.50;94.20;;;;;;5031308;28;20227;-84
2022/07/03 03:52:26;;;;;;;3.20;1.57;;;16.50;94.50;;;;;;5025255;28;20223;-84
2022/07/03 03:54:53;;;;;;;3.17;1.87;;;16.50;94.50;;;;;;5030586;28;20223;-84
2022/07/03 03:57:21;;;;;;;2.23;1.93;;;16.60;94.50;;;;;;5033315;28;20226;-84
2022/07/03 03:59:48;;;;;;;1.90;1.70;;;16.60;94.60;;;;;;5045795;28;20315;-84
2022/07/03 04:02:16;;;;;;;1.80;1.67;;;16.60;94.50;;;;;;5036015;28;20230;-84
2022/07/03 04:04:43;;;;;;;1.90;1.80;;;16.50;94.50;;;;;;5022552;28;20235;-85
2022/07/03 04:07:11;;;;;;;2.40;2.00;;;16.50;94.90;;;;;;5025499;28;20769;-85
2022/07/03 04:09:38;;;;;;;1.77;1.67;;;16.50;94.70;;;;;;5023051;28;20234;-85
2022/07/03 04:12:05;;;;;;;2.00;1.60;;;16.50;94.80;;;;;;5046405;28;20294;-83
2022/07/03 04:14:32;;;;;;;4.97;2.10;;;16.40;95.00;;;;;;5041605;28;20217;-84
2022/07/03 04:17:00;;;;;;;3.40;1.77;;;16.40;95.10;;;;;;5040687;28;20225;-83
2022/07/03 04:19:26;;;;;;;1.97;1.80;;;16.40;95.00;;;;;;5013811;28;20250;-83
2022/07/03 04:21:53;;;;;;;4.60;2.40;;;16.40;95.00;;;;;;5013573;28;20246;-83
2022/07/03 04:24:22;;;;;;;2.40;1.70;;;16.40;95.10;;;;;;5029759;28;20244;-83
2022/07/03 04:26:48;;;;;;;2.23;1.90;;;16.40;95.30;;;;;;5011586;28;20244;-83
2022/07/03 04:29:15;;;;;;;3.63;2.03;;;16.40;95.20;;;;;;5011524;28;20236;-83
2022/07/03 04:31:42;;;;;;;2.43;1.70;;;16.40;95.70;;;;;;5048652;28;20237;-83
2022/07/03 04:34:08;;;;;;;2.00;1.73;;;16.40;95.40;;;;;;5029346;28;20286;-84
2022/07/03 04:36:35;;;;;;;3.23;2.37;;;16.40;95.40;;;;;;5035697;28;20235;-84
2022/07/03 04:39:02;;;;;;;1.80;1.70;;;16.30;95.30;;;;;;5031002;28;20233;-84
2022/07/03 04:41:30;;;;;;;2.33;1.70;;;16.30;95.40;;;;;;5057887;28;20254;-84
2022/07/03 04:43:57;;;;;;;2.60;1.90;;;16.30;95.50;;;;;;5028507;28;20408;-84
2022/07/03 04:46:23;;;;;;;2.10;1.90;;;16.40;95.50;;;;;;5043760;28;20757;-86
2022/07/03 04:48:50;;;;;;;4.47;2.10;;;16.30;95.60;;;;;;5045601;28;20223;-84
2022/07/03 04:51:17;;;;;;;2.67;1.60;;;16.40;95.60;;;;;;5032118;28;20231;-85
2022/07/03 04:53:43;;;;;;;2.60;1.80;;;16.40;95.60;;;;;;5053016;28;20232;-85
2022/07/03 04:56:10;;;;;;;3.33;1.90;;;16.40;95.80;;;;;;5047342;28;20765;-85
2022/07/03 04:58:38;;;;;;;2.53;1.80;;;16.40;95.90;;;;;;5031084;28;20722;-84
2022/07/03 05:01:05;;;;;;;2.60;2.00;;;16.40;96.00;;;;;;5033588;28;20243;-83
2022/07/03 05:03:31;;;;;;;3.53;2.13;;;16.50;96.00;;;;;;5054644;28;20241;-83
2022/07/03 05:05:59;;;;;;;3.10;1.77;;;16.50;96.00;;;;;;5031807;28;20226;-84
2022/07/03 05:08:26;;;;;;;2.93;1.80;;;16.60;96.10;;;;;;5063847;28;20896;-84
2022/07/03 05:10:52;;;;;;;3.43;1.80;;;16.60;96.10;;;;;;5054905;28;20226;-84
2022/07/03 05:13:19;;;;;;;3.53;2.00;;;16.70;96.10;;;;;;5037729;28;20228;-84
2022/07/03 05:15:47;;;;;;;3.40;1.93;;;16.70;96.00;;;;;;5032930;28;20235;-84
2022/07/03 05:18:14;;;;;;;2.57;1.93;;;16.80;96.00;;;;;;5034629;28;20243;-83
2022/07/03 05:20:41;;;;;;;2.10;1.77;;;16.90;96.10;;;;;;5050940;28;20246;-83
2022/07/03 05:23:07;;;;;;;3.37;2.00;;;16.90;96.00;;;;;;5038743;28;20220;-84
2022/07/03 05:25:34;;;;;;;1.70;1.60;;;17.10;96.10;;;;;;5027103;28;20229;-84
2022/07/03 05:28:01;;;;;;;2.07;1.80;;;17.10;96.00;;;;;;5055916;28;20291;-85
2022/07/03 05:30:28;;;;;;;1.83;1.63;;;17.20;95.90;;;;;;5034654;28;20696;-84
2022/07/03 05:32:56;;;;;;;2.47;1.80;;;17.20;95.90;;;;;;5056451;28;20220;-84
2022/07/03 05:35:23;;;;;;;2.60;1.80;;;17.30;95.90;;;;;;5034058;28;20232;-85
2022/07/03 05:37:50;;;;;;;4.07;2.00;;;17.30;95.70;;;;;;5042912;28;20293;-85
2022/07/03 05:40:17;;;;;;;2.77;1.70;;;17.50;95.50;;;;;;5047742;28;20245;-85
2022/07/03 05:42:43;;;;;;;2.50;1.67;;;17.50;95.40;;;;;;5042936;28;20223;-85
2022/07/03 05:45:11;;;;;;;1.73;1.60;;;17.60;95.20;;;;;;5050236;28;20220;-85
2022/07/03 05:47:38;;;;;;;2.55;1.73;;;17.60;95.10;;;;;;5047839;28;20256;-85
2022/07/03 05:50:07;;;;;;;3.67;1.90;;;17.70;94.90;;;;;;5036462;28;20255;-86
2022/07/03 05:52:34;;;;;;;1.88;1.73;;;17.80;94.90;;;;;;5042982;28;20315;-85
2022/07/03 05:55:00;;;;;;;3.42;2.08;;;17.80;94.50;;;;;;5035987;28;20310;-85
2022/07/03 05:57:27;;;;;;;1.98;1.58;;;17.90;94.40;;;;;;5059084;28;20291;-85
2022/07/03 05:59:54;;;;;;;1.98;1.73;;;17.90;94.20;;;;;;5026224;28;20335;-84
2022/07/03 06:02:20;;;;;;;2.03;1.90;;;18.00;94.10;;;;;;5047377;28;20723;-84
2022/07/03 06:04:47;;;;;;;2.50;1.60;;;18.00;94.20;;;;;;5028430;28;20228;-84
2022/07/03 06:07:16;;;;;;;2.65;1.55;;;18.00;94.10;;;;;;5064316;28;20235;-83
2022/07/03 06:09:43;;;;;;;2.17;1.70;;;18.00;93.50;;;;;;5043802;28;20227;-84
2022/07/03 06:12:10;;;;;;;2.13;1.73;;;18.00;93.60;;;;;;5028920;28;20220;-84
2022/07/03 06:14:37;;;;;;;2.57;1.93;;;18.10;93.80;;;;;;5048684;28;20228;-82
2022/07/03 06:17:04;;;;;;;2.10;1.90;;;18.10;93.70;;;;;;5037304;28;20355;-85
2022/07/03 06:19:31;;;;;;;3.53;1.90;;;18.10;93.50;;;;;;5035948;28;20226;-82
2022/07/03 06:21:57;;;;;;;2.20;1.67;;;18.20;93.50;;;;;;5036178;28;20224;-86
2022/07/03 06:24:25;;;;;;;3.70;1.70;;;18.30;93.70;;;;;;5051133;28;20231;-84
2022/07/03 06:26:52;;;;;;;1.98;1.70;;;18.30;93.40;;;;;;5050312;28;20227;-84
2022/07/03 06:29:19;;;;;;;2.38;1.55;;;18.40;93.40;;;;;;5027582;28;20220;-83
2022/07/03 06:31:46;;;;;;;3.25;1.70;;;18.50;93.40;;;;;;5032688;28;20669;-84
2022/07/03 06:34:12;;;;;;;1.88;1.67;;;18.70;93.20;;;;;;5049827;28;20247;-85
2022/07/03 06:36:39;;;;;;;2.42;1.48;;;18.90;92.80;;;;;;5031906;28;20255;-84
2022/07/03 06:39:06;;;;;;;2.20;1.65;;;19.10;92.60;;;;;;5049990;28;20250;-83
2022/07/03 06:41:34;;;;;;;4.03;2.00;;;19.30;92.40;;;;;;5035502;28;20731;-84
2022/07/03 06:44:00;;;;;;;3.08;1.48;;;19.40;92.10;;;;;;5039696;28;20415;-84
2022/07/03 06:46:27;;;;;;;1.60;1.50;;;19.50;92.20;;;;;;5057467;28;20249;-84
2022/07/03 06:48:54;;;;;;;1.58;1.45;;;19.70;91.80;;;;;;5048359;28;20228;-83
2022/07/03 06:51:20;;;;;;;2.13;1.70;;;19.90;91.70;;;;;;5030531;28;20231;-83
2022/07/03 06:53:47;;;;;;;2.25;1.60;;;20.10;91.50;;;;;;5013744;28;20247;-85
2022/07/03 06:56:14;;;;;;;2.38;1.73;;;20.20;90.90;;;;;;5012785;28;20362;-85
2022/07/03 06:58:42;;;;;;;1.92;1.50;;;20.20;90.60;;;;;;5031268;28;20693;-84
2022/07/03 07:01:08;;;;;;;2.97;1.50;;;20.30;90.90;;;;;;5038438;28;20224;-84
2022/07/03 07:03:35;;;;;;;2.97;1.77;;;20.50;91.10;;;;;;5016368;28;20719;-84
2022/07/03 07:06:02;;;;;;;2.92;1.50;;;20.70;91.30;;;;;;5043709;28;20726;-84
2022/07/03 07:08:28;;;;;;;3.47;1.60;;;21.20;91.00;;;;;;5050608;28;20230;-85
2022/07/03 07:10:55;;;;;;;1.75;1.40;;;21.70;91.00;;;;;;5048550;28;20216;-83
2022/07/03 07:13:22;;;;;;;3.17;1.50;;;22.30;90.70;;;;;;5050442;28;20227;-83
2022/07/03 07:15:50;;;;;;;2.53;1.73;;;23.10;90.20;;;;;;5035085;28;20258;-83
2022/07/03 07:18:16;;;;;;;2.08;1.55;;;23.90;87.70;;;;;;5048243;28;20477;-84
2022/07/03 07:20:43;;;;;;;1.60;1.45;;;24.70;86.70;;;;;;5034624;28;20912;-84
2022/07/03 07:23:10;;;;;;;1.35;1.25;;;25.50;84.40;;;;;;5047492;28;20224;-84
2022/07/03 07:25:37;;;;;;;3.35;1.60;;;26.30;82.60;;;;;;5030050;28;20232;-85
2022/07/03 07:28:04;;;;;;;2.92;1.52;;;27.00;79.20;;;;;;5029602;28;20224;-86
2022/07/03 07:30:30;;;;;;;2.63;1.60;;;27.60;77.90;;;;;;5040930;28;20220;-85
2022/07/03 07:32:58;;;;;;;1.40;1.30;;;28.20;74.90;;;;;;5049768;28;20227;-86
2022/07/03 07:35:25;;;;;;;2.03;1.40;;;28.80;73.40;;;;;;5044674;28;20258;-85
2022/07/03 07:37:52;;;;;;;1.55;1.30;;;29.30;72.50;;;;;;5047860;28;20238;-85
2022/07/03 07:40:18;;;;;;;1.92;1.40;;;29.90;71.20;;;;;;5030387;28;20230;-83
2022/07/03 07:42:45;;;;;;;3.05;1.65;;;30.40;69.30;;;;;;5020146;28;20327;-88
2022/07/03 07:45:12;;;;;;;1.85;1.30;;;30.90;67.70;;;;;;5051138;28;20288;-83
2022/07/03 07:47:39;;;;;;;2.13;1.60;;;31.30;66.10;;;;;;5049316;28;20426;-85
2022/07/03 07:50:08;;;;;;;1.92;1.45;;;31.70;65.10;;;;;;5029576;28;20228;-86
2022/07/03 07:52:35;;;;;;;2.47;1.17;;;32.20;62.50;;;;;;5038845;28;20228;-83
2022/07/03 07:55:02;;;;;;;4.68;1.65;;;32.60;61.20;;;;;;5049972;28;20234;-84
2022/07/03 07:57:35;;;;;;;3.08;1.40;;;33.00;60.20;;;;;;5036424;28;20281;-85
2022/07/03 08:00:06;;;;;;;1.65;1.38;;;33.30;57.90;;;;;;5042460;28;20587;-85
2022/07/03 08:05:36;;;;;;;1.55;1.30;;;33.80;57.60;;;;;;5044363;28;20222;-85
2022/07/03 08:08:04;;;;;;;1.60;1.50;;;34.10;56.90;;;;;;5043384;28;20220;-84
2022/07/03 08:10:34;;;;;;;2.53;1.90;;;34.40;56.10;;;;;;5037662;28;20231;-84
2022/07/03 08:13:00;;;;;;;2.67;1.65;;;34.50;54.90;;;;;;5027448;28;20593;-84
2022/07/03 08:15:27;;;;;;;2.75;1.58;;;34.50;54.30;;;;;;5047954;28;20228;-86
2022/07/03 08:17:54;;;;;;;2.70;1.70;;;34.50;53.50;;;;;;5043597;28;20224;-85
2022/07/03 08:20:20;;;;;;;2.42;1.50;;;34.40;53.10;;;;;;5042539;28;20224;-83
2022/07/03 08:22:48;;;;;;;2.13;1.30;;;34.30;53.20;;;;;;5018396;28;20645;-84
2022/07/03 08:25:15;;;;;;;2.00;1.35;;;34.30;52.80;;;;;;5026658;28;20233;-85
2022/07/03 08:27:42;;;;;;;3.00;1.10;;;34.30;52.00;;;;;;5018991;28;20227;-85
2022/07/03 08:30:09;;;;;;;1.80;1.33;;;34.40;52.00;;;;;;5042577;28;20311;-86
2022/07/03 08:32:36;;;;;;;3.22;1.10;;;34.40;50.90;;;;;;5031504;28;20227;-85
2022/07/03 08:35:02;;;;;;;1.10;1.02;;;34.40;51.60;;;;;;5050997;28;20244;-86
2022/07/03 08:37:29;;;;;;;1.33;1.15;;;34.50;51.20;;;;;;5034343;28;20235;-83
2022/07/03 08:39:57;;;;;;;2.65;1.30;;;34.70;51.40;;;;;;5023155;28;20596;-84
2022/07/03 08:42:26;;;;;;;2.53;1.17;;;35.00;50.50;;;;;;5048555;28;20235;-85
2022/07/03 08:44:53;;;;;;;1.52;1.17;;;35.30;50.40;;;;;;5048340;28;20231;-84
2022/07/03 08:47:21;;;;;;;2.25;1.20;;;35.60;49.80;;;;;;5044366;28;20232;-83
2022/07/03 08:49:49;;;;;;;2.00;1.33;;;35.90;49.60;;;;;;5043240;28;20703;-83
2022/07/03 08:52:16;;;;;;;6.60;1.27;;;36.10;48.80;;;;;;5056859;28;20563;-84
2022/07/03 08:54:42;;;;;;;1.70;1.23;;;36.30;48.20;;;;;;5025089;28;20307;-84
2022/07/03 08:57:12;;;;;;;2.15;1.25;;;36.50;47.70;;;;;;5036543;28;20223;-84
2022/07/03 08:59:40;;;;;;;1.27;1.17;;;36.70;46.90;;;;;;5028544;28;20223;-83
2022/07/03 09:02:07;;;;;;;1.83;1.27;;;36.80;46.80;;;;;;5030388;28;20243;-84
2022/07/03 09:04:35;;;;;;;1.08;0.90;;;36.90;47.00;;;;;;5014771;28;20221;-83
2022/07/03 09:07:01;;;;;;;1.55;1.40;;;37.00;46.60;;;;;;5036779;28;20297;-86
2022/07/03 09:09:28;;;;;;;1.65;1.17;;;37.20;45.90;;;;;;5042509;28;20865;-86
2022/07/03 09:11:55;;;;;;;2.53;1.50;;;37.40;45.70;;;;;;5022832;28;20221;-85
2022/07/03 09:14:23;;;;;;;1.38;0.95;;;37.50;44.40;;;;;;5024329;28;20299;-86
2022/07/03 09:16:50;;;;;;;1.17;0.90;;;37.70;43.70;;;;;;5025813;28;20366;-86
2022/07/03 09:19:42;;;;;;;2.60;1.23;;;37.70;43.80;;;;;;5023912;28;20365;-86
2022/07/03 09:22:20;;;;;;;2.55;1.27;;;37.60;43.80;;;;;;5037486;28;20227;-86
2022/07/03 09:24:47;;;;;;;1.50;1.17;;;37.50;43.40;;;;;;5026791;28;20273;-86
2022/07/03 09:27:18;;;;;;;1.20;1.10;;;37.40;44.10;;;;;;5029794;28;20222;-86
2022/07/03 09:30:00;;;;;;;2.67;1.10;;;37.30;42.60;;;;;;5026777;28;20215;-86
2022/07/03 09:32:27;;;;;;;1.70;1.08;;;37.00;43.40;;;;;;5026360;28;20223;-86
2022/07/03 09:35:13;;;;;;;0.93;0.93;;;36.70;44.10;;;;;;5046411;28;20220;-86
2022/07/03 09:37:41;;;;;;;1.60;1.27;;;36.20;44.20;;;;;;5018127;28;20638;-85
2022/07/03 09:40:08;;;;;;;1.48;1.00;;;35.80;43.40;;;;;;5020322;28;20227;-86
2022/07/03 09:42:35;;;;;;;2.42;1.20;;;35.20;44.00;;;;;;5044631;28;20227;-86
2022/07/03 09:45:03;;;;;;;2.25;1.05;;;34.70;44.50;;;;;;5021887;28;20234;-86
2022/07/03 09:47:30;;;;;;;1.95;1.20;;;34.30;45.10;;;;;;5040848;28;20895;-86
2022/07/03 09:49:58;;;;;;;1.33;0.90;;;33.90;45.40;;;;;;5016102;28;20224;-86
2022/07/03 09:52:30;;;;;;;3.30;1.15;;;33.70;46.40;;;;;;5044767;28;20295;-86
2022/07/03 09:54:58;;;;;;;5.22;1.25;;;33.50;46.40;;;;;;5024026;28;20922;-86
2022/07/03 09:57:25;;;;;;;2.03;1.20;;;33.40;47.20;;;;;;5039589;28;20224;-85
2022/07/03 10:00:14;;;;;;;1.67;1.20;;;33.30;47.20;;;;;;5026889;28;20956;-86
2022/07/03 10:02:53;;;;;;;4.00;1.20;;;33.20;47.30;;;;;;5037955;28;20227;-86
2022/07/03 10:05:21;;;;;;;2.10;1.10;;;33.10;46.80;;;;;;5044011;28;20228;-86
2022/07/03 10:07:52;;;;;;;2.40;1.30;;;33.00;47.20;;;;;;5025498;28;21142;-86
2022/07/03 10:10:20;;;;;;;3.15;1.17;;;33.00;47.40;;;;;;5044828;28;20266;-86
2022/07/03 10:12:49;;;;;;;3.20;1.13;;;32.90;47.00;;;;;;5034435;28;20884;-86
2022/07/03 10:15:17;;;;;;;2.25;1.10;;;32.80;47.40;;;;;;5038059;28;20227;-86
2022/07/03 10:17:47;;;;;;;1.15;1.05;;;32.70;47.70;;;;;;5023610;28;20216;-86
2022/07/03 10:20:15;;;;;;;3.78;1.17;;;32.60;47.80;;;;;;5030824;28;20216;-86
2022/07/03 10:22:46;;;;;;;1.85;1.00;;;32.60;47.60;;;;;;5025401;28;20242;-86
2022/07/03 10:25:14;;;;;;;2.55;0.90;;;32.60;47.40;;;;;;5041018;28;20773;-85
2022/07/03 10:27:41;;;;;;;1.17;1.00;;;32.50;47.90;;;;;;5027296;28;20215;-85
2022/07/03 10:30:08;;;;;;;1.63;1.02;;;32.40;47.60;;;;;;5025489;28;20220;-85
2022/07/03 10:32:38;;;;;;;3.47;1.20;;;32.30;47.80;;;;;;5033108;28;20231;-86
2022/07/03 10:35:06;;;;;;;2.03;1.00;;;32.10;47.80;;;;;;5043424;28;20755;-85
2022/07/03 10:37:43;;;;;;;4.03;1.55;;;31.90;47.70;;;;;;5039247;28;20228;-86
2022/07/03 10:46:13;;;;;;;2.85;1.10;;;31.80;49.30;;;;;;5020597;28;20227;-85
2022/07/03 10:49:08;;;;;;;2.35;1.13;;;32.10;49.20;;;;;;5039539;28;20219;-86
2022/07/03 10:51:55;;;;;;;1.38;0.98;;;32.30;49.00;;;;;;4965220;28;20703;-86
2022/07/03 10:54:24;;;;;;;1.63;0.90;;;32.40;48.60;;;;;;5023105;28;20227;-86
2022/07/03 10:57:11;;;;;;;2.10;1.10;;;32.50;48.20;;;;;;5043123;28;20869;-86
2022/07/03 11:00:01;;;;;;;1.75;1.20;;;32.60;48.40;;;;;;5026161;28;20767;-86
2022/07/03 11:02:32;;;;;;;1.15;1.05;;;32.80;47.40;;;;;;5022140;28;20307;-86
2022/07/03 11:05:23;;;;;;;3.05;1.13;;;33.00;48.20;;;;;;5031748;28;20415;-86
2022/07/03 11:08:09;;;;;;;2.33;1.00;;;33.20;47.90;;;;;;5040737;28;20223;-86
2022/07/03 11:10:41;;;;;;;1.42;0.82;;;33.60;47.30;;;;;;5016706;28;20234;-86
2022/07/03 11:13:15;;;;;;;2.33;0.95;;;33.90;46.10;;;;;;5025608;28;20219;-86
2022/07/03 11:15:47;;;;;;;2.53;0.80;;;34.20;44.50;;;;;;5028779;28;20228;-86
2022/07/03 11:18:17;;;;;;;0.90;0.90;;;34.40;44.90;;;;;;5021430;28;20271;-86
2022/07/03 11:21:29;;;;;;;1.92;0.95;;;34.60;44.00;;;;;;5030650;28;20226;-86
2022/07/03 11:24:11;;;;;;;2.92;1.23;;;34.90;44.40;;;;;;5043848;28;20220;-86
2022/07/03 11:26:37;;;;;;;2.00;1.15;;;35.10;43.30;;;;;;5028326;28;20228;-86
2022/07/03 11:29:04;;;;;;;1.60;1.10;;;35.20;43.50;;;;;;5029906;28;20226;-86
2022/07/03 11:31:31;;;;;;;3.03;1.05;;;35.10;43.20;;;;;;5029393;28;20231;-86
2022/07/03 11:33:59;;;;;;;1.52;1.20;;;35.10;44.10;;;;;;5024586;28;20231;-86
2022/07/03 11:36:28;;;;;;;3.22;1.65;;;35.10;43.80;;;;;;5033255;28;20305;-85
2022/07/03 11:39:05;;;;;;;2.78;1.15;;;35.20;43.40;;;;;;5036553;28;21064;-86
2022/07/03 11:41:43;;;;;;;3.72;1.10;;;35.30;42.70;;;;;;5046822;28;20230;-86
2022/07/03 11:44:14;;;;;;;3.22;1.02;;;35.50;43.40;;;;;;5024844;28;20226;-86
2022/07/03 11:46:42;;;;;;;2.10;1.00;;;35.80;43.20;;;;;;5046699;28;20228;-86
2022/07/03 11:49:10;;;;;;;2.47;1.02;;;36.00;43.20;;;;;;5023527;28;20224;-86
2022/07/03 11:51:39;;;;;;;3.58;1.13;;;36.20;42.50;;;;;;5046058;28;20227;-86
2022/07/03 11:54:07;;;;;;;1.92;1.10;;;36.30;41.70;;;;;;5027817;28;20220;-87
2022/07/03 11:56:36;;;;;;;2.08;1.00;;;36.20;41.00;;;;;;5026419;28;20232;-86
2022/07/03 11:59:04;;;;;;;0.80;0.80;;;36.20;41.50;;;;;;5033623;28;20227;-86
2022/07/03 12:01:33;;;;;;;2.22;1.20;;;36.00;41.20;;;;;;5041658;28;20228;-86
2022/07/03 12:04:05;;;;;;;2.03;0.90;;;35.80;41.10;;;;;;5029414;28;20356;-86
2022/07/03 12:06:38;;;;;;;3.53;2.00;;;35.70;41.10;;;;;;5043654;28;20233;-86
2022/07/03 12:09:17;;;;;;;1.42;0.82;;;35.50;40.90;;;;;;5032340;28;20290;-86
2022/07/03 12:11:56;;;;;;;2.70;1.17;;;35.40;41.70;;;;;;5050910;28;20219;-86
2022/07/03 12:14:40;;;;;;;2.53;1.23;;;35.40;41.50;;;;;;5028703;28;20229;-86
2022/07/03 12:17:08;;;;;;;1.73;1.10;;;35.50;41.80;;;;;;5026595;28;20226;-86
2022/07/03 12:19:35;;;;;;;3.22;1.20;;;35.50;41.50;;;;;;5048500;28;20960;-86
2022/07/03 12:22:04;;;;;;;1.40;0.80;;;35.50;41.50;;;;;;5052206;28;20224;-86
2022/07/03 12:24:30;;;;;;;1.30;0.95;;;35.40;41.80;;;;;;5030839;28;20238;-84
2022/07/03 12:26:57;;;;;;;3.45;1.20;;;35.20;42.00;;;;;;5047405;28;20228;-85
2022/07/03 12:29:24;;;;;;;1.20;0.90;;;35.10;41.90;;;;;;5031899;28;20233;-84
2022/07/03 12:31:52;;;;;;;4.13;1.25;;;35.00;41.60;;;;;;5041550;28;20226;-85
2022/07/03 12:34:19;;;;;;;2.45;1.10;;;34.90;41.80;;;;;;5031498;28;20234;-84
2022/07/03 12:36:57;;;;;;;2.25;0.98;;;34.80;41.40;;;;;;5031835;28;20231;-85
2022/07/03 12:39:40;;;;;;;1.92;0.90;;;34.80;42.10;;;;;;5049600;28;20245;-85
2022/07/03 12:42:15;;;;;;;1.45;1.00;;;34.90;42.10;;;;;;5030281;28;20216;-86
2022/07/03 12:44:41;;;;;;;1.23;0.82;;;34.90;41.40;;;;;;5049089;28;20252;-85
2022/07/03 12:47:08;;;;;;;2.67;0.95;;;34.90;41.30;;;;;;5047591;28;20219;-85
2022/07/03 12:49:35;;;;;;;2.42;1.30;;;34.90;41.60;;;;;;5047600;28;20917;-85
2022/07/03 12:52:02;;;;;;;2.70;0.98;;;34.90;41.60;;;;;;5032068;28;20266;-86
2022/07/03 12:54:35;;;;;;;2.55;1.20;;;34.70;41.20;;;;;;5035372;28;20225;-82
2022/07/03 13:00:02;;;;;;;1.90;0.90;;;34.20;41.70;;;;;;5036542;28;20722;-81
2022/07/03 13:02:29;;;;;;;2.03;1.10;;;33.90;41.80;;;;;;5038247;28;20227;-82
2022/07/03 13:04:55;;;;;;;1.65;0.80;;;33.60;43.00;;;;;;5057899;28;20230;-82
2022/07/03 13:07:22;;;;;;;1.70;1.05;;;33.50;43.00;;;;;;5038422;28;20239;-82
2022/07/03 13:09:54;;;;;;;1.25;0.95;;;33.30;43.60;;;;;;5056913;28;20256;-82
2022/07/03 13:12:23;;;;;;;2.40;0.95;;;33.20;43.30;;;;;;5056695;28;20235;-81